METAR Data
IDs: Format: Raw Decoded Include TAF

Data at: 2108 UTC 26 May 2019

METAR for:KIND (Indianapolis Intl, IN, US)
Text:KIND 262054Z 29004KT 10SM FEW045 SCT140 BKN250 27/17 A3002 RMK AO2 SLP159 T02670167 58008 $
Temperature: 26.7°C ( 80°F)
Dewpoint: 16.7°C ( 62°F) [RH = 54%]
Pressure (altimeter):30.02 inches Hg (1016.7 mb) [Sea level pressure: 1015.9 mb]
Winds:from the WNW (290 degrees) at 5 MPH (4 knots; 2.1 m/s)
Visibility:10 or more sm (16+ km)
Ceiling:25000 feet AGL
Clouds: few clouds at 4500 feet AGL, scattered clouds at 14000 feet AGL, broken clouds at 25000 feet AGL
QC Flag:SOME DATA ABOVE MAY BE INACCURATE!!!"$" is an indication the sensor requires maintenance.